Terminal Aerodrome Forecast
Issued by NWS

Home | Current Version | Previous Version | Text Only | Print | Product List | Glossary On
Versions: 1 2 3 4 5 6 7 8 9 10 11 12 13 14 15 16 17 18 19 20
812
FTUS46 KEKA 292345
TAFCEC
TAF
KCEC 292345Z 3000/3024 15012KT 3SM -RA BR OVC012
     FM300300 20008KT 4SM -RA BR BKN012 OVC020
     FM300500 28004KT P6SM VCSH SCT012 OVC025
     FM300800 29006KT P6SM FEW015 SCT025 OVC050
     FM302000 30007KT P6SM SCT030=

USA.gov is the U.S. government's official web portal to all federal, state and local government web resources and services.